createdAt,value
2023-05-02T00:00:13.890Z,10.30
2023-05-02T00:03:14.780Z,9.10
2023-05-02T00:05:43.524Z,8.80
2023-05-02T00:08:12.824Z,8.30
2023-05-02T00:10:41.462Z,9.20
2023-05-02T00:13:10.174Z,7.10
2023-05-02T00:15:38.790Z,6.70
2023-05-02T00:18:07.567Z,7.40
2023-05-02T00:20:36.342Z,7.00
2023-05-02T00:23:05.067Z,6.80
2023-05-02T00:25:33.727Z,8.00
2023-05-02T00:28:02.394Z,9.50
2023-05-02T00:30:31.049Z,8.90
2023-05-02T00:32:59.812Z,8.30
2023-05-02T00:35:28.526Z,9.00
2023-05-02T00:37:59.621Z,10.00
2023-05-02T00:40:28.269Z,10.20
2023-05-02T00:42:56.968Z,9.80
2023-05-02T00:45:25.655Z,10.70
2023-05-02T00:47:55.391Z,11.00
2023-05-02T00:50:27.156Z,10.60
2023-05-02T00:52:55.891Z,10.50
2023-05-02T00:55:24.565Z,10.70
2023-05-02T00:57:53.387Z,11.10
2023-05-02T01:00:28.392Z,10.50
2023-05-02T01:03:13.148Z,10.10
2023-05-02T01:05:56.483Z,10.10
2023-05-02T01:08:50.868Z,10.20
2023-05-02T01:11:35.290Z,10.50
2023-05-02T01:14:05.911Z,11.90
2023-05-02T01:16:42.221Z,12.80
2023-05-02T01:19:22.162Z,11.70
2023-05-02T01:21:52.553Z,12.50
2023-05-02T01:24:32.916Z,13.00
2023-05-02T01:27:15.833Z,13.30
2023-05-02T01:29:46.472Z,13.00
2023-05-02T01:32:17.227Z,11.90
2023-05-02T01:34:48.969Z,11.60
2023-05-02T01:37:18.559Z,9.80
2023-05-02T01:39:49.557Z,9.50
2023-05-02T01:42:20.476Z,9.60
2023-05-02T01:44:51.989Z,9.10
2023-05-02T01:47:23.136Z,9.40
2023-05-02T01:49:52.667Z,8.90
2023-05-02T01:52:22.875Z,8.20
2023-05-02T01:54:53.664Z,9.10
2023-05-02T01:57:22.332Z,9.10
2023-05-02T01:59:55.206Z,8.20
2023-05-02T02:02:29.750Z,8.00
2023-05-02T02:05:00.037Z,8.60
2023-05-02T02:07:28.828Z,8.90
2023-05-02T02:09:58.036Z,9.40
2023-05-02T02:12:41.058Z,8.90
2023-05-02T02:15:19.756Z,8.60
2023-05-02T02:18:02.076Z,9.50
2023-05-02T02:20:32.443Z,9.50
2023-05-02T02:23:05.159Z,10.80
2023-05-02T02:25:34.944Z,9.70
2023-05-02T02:28:04.326Z,7.10
2023-05-02T02:30:33.416Z,8.60
2023-05-02T02:33:02.127Z,10.10
2023-05-02T02:35:37.435Z,9.90
2023-05-02T02:38:12.567Z,9.20
2023-05-02T02:40:46.067Z,9.50
2023-05-02T02:44:04.714Z,10.00
2023-05-02T02:46:59.930Z,10.40
2023-05-02T02:49:56.348Z,9.90
2023-05-02T02:52:34.917Z,9.50
2023-05-02T02:55:17.455Z,8.80
2023-05-02T02:58:04.249Z,9.90
2023-05-02T03:00:34.885Z,9.80
2023-05-02T03:03:07.078Z,9.60
2023-05-02T03:05:35.991Z,10.20
2023-05-02T03:08:05.033Z,11.00
2023-05-02T03:10:33.838Z,11.20
2023-05-02T03:13:02.554Z,10.30
2023-05-02T03:15:59.217Z,10.80
2023-05-02T03:18:27.999Z,11.70
2023-05-02T03:20:56.797Z,11.20
2023-05-02T03:23:25.460Z,10.20
2023-05-02T03:25:54.226Z,9.10
2023-05-02T03:28:23.056Z,8.20
2023-05-02T03:30:51.674Z,5.90
2023-05-02T03:33:20.452Z,5.50
2023-05-02T03:35:49.132Z,5.50
2023-05-02T03:38:17.772Z,5.80
2023-05-02T03:40:46.378Z,5.30
2023-05-02T03:43:15.067Z,5.60
2023-05-02T03:45:43.714Z,5.00
2023-05-02T03:48:12.457Z,5.70
2023-05-02T03:50:41.124Z,6.90
2023-05-02T03:53:10.142Z,6.50
2023-05-02T03:55:42.891Z,6.00
2023-05-02T03:58:12.007Z,7.00
2023-05-02T04:00:40.928Z,6.50
2023-05-02T04:03:09.752Z,6.40
2023-05-02T04:05:38.425Z,6.30
2023-05-02T04:08:07.197Z,6.00
2023-05-02T04:10:35.975Z,6.40
2023-05-02T04:13:05.030Z,6.10
2023-05-02T04:15:33.879Z,6.30
2023-05-02T04:18:02.619Z,7.10
2023-05-02T04:20:31.336Z,6.60
2023-05-02T04:22:59.992Z,6.50
2023-05-02T04:25:29.154Z,6.60
2023-05-02T04:27:57.903Z,7.00
2023-05-02T04:30:26.603Z,7.00
2023-05-02T04:32:55.273Z,7.50
2023-05-02T04:35:23.903Z,6.50
2023-05-02T04:37:52.553Z,7.00
2023-05-02T04:40:21.251Z,7.80
2023-05-02T04:42:50.388Z,6.50
2023-05-02T04:45:19.110Z,6.60
2023-05-02T04:47:47.811Z,7.40
2023-05-02T04:50:16.534Z,7.80
2023-05-02T04:52:45.299Z,7.40
2023-05-02T04:55:14.366Z,7.00
2023-05-02T04:57:43.046Z,7.30
2023-05-02T05:00:12.336Z,7.00
2023-05-02T05:02:41.090Z,7.10
2023-05-02T05:05:10.326Z,7.10
2023-05-02T05:07:39.081Z,8.00
2023-05-02T05:10:08.470Z,7.60
2023-05-02T05:12:37.175Z,7.20
2023-05-02T05:15:06.981Z,7.30
2023-05-02T05:17:36.405Z,8.00
2023-05-02T05:20:06.646Z,7.10
2023-05-02T05:22:40.095Z,7.90
2023-05-02T05:25:09.603Z,7.70
2023-05-02T05:27:38.367Z,7.80
2023-05-02T05:30:09.023Z,8.00
2023-05-02T05:32:37.688Z,7.50
2023-05-02T05:35:06.814Z,7.60
2023-05-02T05:37:37.434Z,7.40
2023-05-02T05:40:09.380Z,7.80
2023-05-02T05:42:38.047Z,7.80
2023-05-02T05:45:07.502Z,7.50
2023-05-02T05:47:36.325Z,9.30
2023-05-02T05:50:05.817Z,11.40
2023-05-02T05:52:34.591Z,12.50
2023-05-02T05:55:04.422Z,9.50
2023-05-02T05:57:33.122Z,11.50
2023-05-02T06:00:02.113Z,10.80
2023-05-02T06:02:31.211Z,8.70
2023-05-02T06:05:00.057Z,8.60
2023-05-02T06:07:28.872Z,8.10
2023-05-02T06:09:57.744Z,8.20
2023-05-02T06:12:26.924Z,8.70
2023-05-02T06:14:55.982Z,8.30
2023-05-02T06:17:24.653Z,6.20
2023-05-02T06:19:53.435Z,7.40
2023-05-02T06:22:22.137Z,7.00
2023-05-02T06:24:50.923Z,7.10
2023-05-02T06:27:19.571Z,7.40
2023-05-02T06:29:51.261Z,5.80
2023-05-02T06:32:19.985Z,6.50
2023-05-02T06:34:48.685Z,6.90
2023-05-02T06:37:17.365Z,6.50
2023-05-02T06:39:46.003Z,5.10
2023-05-02T06:42:14.630Z,5.00
2023-05-02T06:44:43.273Z,3.90
2023-05-02T06:47:12.279Z,3.00
2023-05-02T06:49:41.090Z,4.30
2023-05-02T06:52:09.779Z,4.80
2023-05-02T06:54:39.583Z,3.40
2023-05-02T06:57:08.390Z,4.20
2023-05-02T06:59:37.510Z,4.20
2023-05-02T07:02:06.812Z,4.80
2023-05-02T07:04:35.605Z,4.60
2023-05-02T07:07:04.415Z,4.70
2023-05-02T07:09:33.103Z,4.60
2023-05-02T07:12:04.527Z,3.30
2023-05-02T07:14:34.823Z,3.90
2023-05-02T07:17:03.552Z,3.70
2023-05-02T07:19:32.244Z,3.30
2023-05-02T07:22:01.153Z,3.60
2023-05-02T07:24:30.440Z,4.00
2023-05-02T07:26:59.116Z,3.90
2023-05-02T07:29:27.762Z,3.50
2023-05-02T07:31:56.567Z,3.70
2023-05-02T07:34:25.294Z,3.70
2023-05-02T07:36:53.983Z,3.00
2023-05-02T07:39:24.413Z,3.30
2023-05-02T07:41:53.902Z,3.30
2023-05-02T07:44:22.543Z,3.00
2023-05-02T07:46:53.030Z,2.90
2023-05-02T07:49:21.764Z,3.60
2023-05-02T07:51:50.436Z,3.50
2023-05-02T07:54:20.531Z,3.60
2023-05-02T07:56:49.155Z,2.60
2023-05-02T07:59:17.898Z,3.00
2023-05-02T08:01:46.960Z,3.10
2023-05-02T08:04:16.018Z,2.80
2023-05-02T08:06:45.309Z,3.00
2023-05-02T08:09:14.165Z,2.20
2023-05-02T08:11:42.847Z,2.80
2023-05-02T08:14:11.492Z,3.00
2023-05-02T08:16:40.365Z,2.60
2023-05-02T08:19:09.490Z,2.40
2023-05-02T08:21:38.315Z,2.80
2023-05-02T08:24:07.062Z,2.20
2023-05-02T08:26:35.754Z,2.70
2023-05-02T08:29:04.589Z,2.80
2023-05-02T08:31:34.090Z,2.70
2023-05-02T08:34:02.830Z,2.80
2023-05-02T08:36:32.402Z,3.00
2023-05-02T08:39:01.023Z,3.20
2023-05-02T08:41:31.251Z,2.90
2023-05-02T08:44:00.778Z,3.30
2023-05-02T08:46:31.373Z,3.60
2023-05-02T08:49:00.669Z,3.60
2023-05-02T08:51:32.827Z,4.00
2023-05-02T08:54:03.884Z,4.00
2023-05-02T08:56:32.801Z,3.60
2023-05-02T08:59:01.465Z,4.10
2023-05-02T09:01:31.116Z,4.10
2023-05-02T09:04:00.027Z,4.40
2023-05-02T09:06:29.430Z,4.00
2023-05-02T09:09:00.717Z,4.10
2023-05-02T09:11:29.748Z,4.60
2023-05-02T09:14:03.885Z,4.70
2023-05-02T09:16:40.032Z,4.70
2023-05-02T09:19:09.462Z,3.80
2023-05-02T09:21:40.365Z,4.70
2023-05-02T09:24:18.361Z,4.80
2023-05-02T09:26:59.597Z,4.50
2023-05-02T09:29:30.865Z,4.70
2023-05-02T09:31:59.559Z,4.70
2023-05-02T09:34:28.335Z,4.80
2023-05-02T09:36:58.314Z,5.90
2023-05-02T09:39:31.523Z,4.30
2023-05-02T09:42:01.183Z,4.40
2023-05-02T09:44:37.879Z,5.30
2023-05-02T09:47:08.610Z,5.60
2023-05-02T09:49:41.446Z,4.60
2023-05-02T09:52:18.356Z,4.70
2023-05-02T09:54:47.594Z,4.80
2023-05-02T09:57:16.527Z,4.40
2023-05-02T09:59:56.596Z,4.00
2023-05-02T10:02:26.328Z,3.80
2023-05-02T10:04:58.666Z,4.20
2023-05-02T10:07:28.040Z,4.00
2023-05-02T10:10:00.763Z,4.10
2023-05-02T10:12:32.807Z,3.20
2023-05-02T10:15:04.469Z,2.70
2023-05-02T10:17:42.368Z,3.30
2023-05-02T10:20:18.718Z,2.60
2023-05-02T10:22:49.679Z,2.50
2023-05-02T10:25:19.107Z,2.90
2023-05-02T10:27:48.605Z,3.00
2023-05-02T10:30:17.509Z,2.40
2023-05-02T10:32:48.467Z,2.50
2023-05-02T10:35:17.967Z,2.80
2023-05-02T10:37:48.802Z,2.70
2023-05-02T10:40:18.591Z,2.80
2023-05-02T10:42:51.305Z,2.60
2023-05-02T10:45:36.327Z,2.10
2023-05-02T10:48:27.066Z,2.20
2023-05-02T10:50:58.090Z,2.10
2023-05-02T10:53:37.079Z,2.30
2023-05-02T10:56:14.028Z,1.80
2023-05-02T10:58:45.571Z,2.00
2023-05-02T11:01:29.859Z,1.40
2023-05-02T11:04:04.710Z,2.40
2023-05-02T11:07:02.285Z,1.80
2023-05-02T11:09:33.250Z,1.60
2023-05-02T11:12:04.710Z,1.40
2023-05-02T11:14:39.748Z,1.50
2023-05-02T11:17:10.000Z,1.60
2023-05-02T11:19:38.847Z,2.10
2023-05-02T11:22:20.498Z,1.90
2023-05-02T11:24:50.549Z,1.50
2023-05-02T11:27:31.871Z,1.60
2023-05-02T11:30:02.825Z,1.70
2023-05-02T11:32:44.592Z,1.40
2023-05-02T11:35:16.364Z,1.30
2023-05-02T11:38:08.604Z,0.90
2023-05-02T11:40:37.728Z,1.10
2023-05-02T11:43:17.988Z,1.50
2023-05-02T11:45:47.115Z,1.30
2023-05-02T11:48:19.067Z,1.30
2023-05-02T11:50:50.497Z,1.00
2023-05-02T11:53:25.674Z,1.30
2023-05-02T11:55:57.408Z,1.30
2023-05-02T11:58:32.938Z,1.40
2023-05-02T12:01:15.740Z,1.40
2023-05-02T12:03:45.179Z,1.20
2023-05-02T12:06:16.488Z,1.60
2023-05-02T12:08:45.668Z,1.40
2023-05-02T12:11:16.137Z,1.90
2023-05-02T12:13:48.097Z,1.20
2023-05-02T12:16:18.458Z,1.50
2023-05-02T12:18:48.305Z,1.40
2023-05-02T12:21:17.909Z,1.50
2023-05-02T12:23:46.833Z,1.30
2023-05-02T12:26:29.629Z,1.60
2023-05-02T12:28:59.078Z,1.80
2023-05-02T12:31:29.250Z,1.70
2023-05-02T12:34:00.367Z,1.60
2023-05-02T12:36:29.480Z,2.00
2023-05-02T12:38:59.799Z,2.10
2023-05-02T12:41:34.992Z,2.50
2023-05-02T12:44:05.011Z,1.80
2023-05-02T12:46:33.799Z,2.60
2023-05-02T12:49:05.538Z,2.20
2023-05-02T12:51:36.456Z,2.40
2023-05-02T12:54:06.749Z,2.40
2023-05-02T12:56:43.769Z,2.20
2023-05-02T12:59:30.893Z,2.30
2023-05-02T13:02:00.564Z,2.40
2023-05-02T13:04:41.546Z,2.20
2023-05-02T13:07:11.263Z,2.70
2023-05-02T13:09:39.932Z,2.60
2023-05-02T13:12:09.256Z,3.30
2023-05-02T13:14:38.340Z,3.70
2023-05-02T13:17:08.762Z,2.90
2023-05-02T13:19:40.439Z,3.20
2023-05-02T13:22:11.582Z,3.80
2023-05-02T13:24:40.283Z,4.10
2023-05-02T13:27:08.967Z,3.50
2023-05-02T13:29:37.669Z,3.30
2023-05-02T13:32:06.510Z,3.40
2023-05-02T13:34:35.202Z,3.30
2023-05-02T13:37:03.930Z,2.70
2023-05-02T13:39:32.675Z,3.10
2023-05-02T13:42:05.232Z,2.80
2023-05-02T13:44:34.922Z,3.00
2023-05-02T13:47:04.106Z,2.40
2023-05-02T13:49:32.871Z,2.50
2023-05-02T13:52:01.552Z,2.30
2023-05-02T13:54:30.256Z,2.60
2023-05-02T13:56:58.911Z,3.10
2023-05-02T13:59:27.518Z,2.70
2023-05-02T14:01:56.329Z,2.80
2023-05-02T14:04:25.322Z,2.30
2023-05-02T14:06:54.301Z,2.30
2023-05-02T14:09:23.110Z,3.20
2023-05-02T14:11:51.951Z,2.20
2023-05-02T14:14:20.649Z,1.90
2023-05-02T14:16:50.562Z,2.30
2023-05-02T14:19:19.305Z,1.50
2023-05-02T14:21:48.016Z,1.30
2023-05-02T14:24:18.378Z,1.70
2023-05-02T14:26:47.752Z,1.90
2023-05-02T14:29:17.074Z,1.70
2023-05-02T14:31:46.205Z,1.30
2023-05-02T14:34:14.947Z,1.50
2023-05-02T14:36:43.637Z,1.30
2023-05-02T14:39:12.368Z,1.30
2023-05-02T14:41:41.016Z,1.30
2023-05-02T14:44:09.716Z,1.20
2023-05-02T14:46:38.411Z,0.90
2023-05-02T14:49:07.131Z,1.00
2023-05-02T14:51:40.097Z,1.40
2023-05-02T14:54:08.770Z,1.10
2023-05-02T14:56:37.416Z,1.20
2023-05-02T14:59:06.052Z,1.10
2023-05-02T15:01:34.903Z,0.90
2023-05-02T15:04:07.389Z,1.00
2023-05-02T15:06:37.450Z,1.00
2023-05-02T15:09:06.378Z,1.00
2023-05-02T15:11:35.190Z,1.00
2023-05-02T15:14:03.871Z,0.90
2023-05-02T15:16:32.643Z,0.80
2023-05-02T15:19:01.375Z,1.00
2023-05-02T15:21:31.064Z,0.80
2023-05-02T15:23:59.921Z,1.00
2023-05-02T15:26:28.866Z,0.70
2023-05-02T15:28:57.760Z,0.90
2023-05-02T15:31:26.641Z,0.80
2023-05-02T15:33:55.701Z,0.80
2023-05-02T15:36:28.998Z,0.70
2023-05-02T15:38:57.799Z,0.60
2023-05-02T15:41:27.524Z,0.50
2023-05-02T15:43:57.695Z,0.60
2023-05-02T15:46:26.465Z,0.60
2023-05-02T15:48:55.188Z,0.70
2023-05-02T15:51:24.038Z,0.40
2023-05-02T15:53:52.974Z,0.80
2023-05-02T15:56:21.745Z,0.70
2023-05-02T15:58:50.426Z,0.50
2023-05-02T16:01:21.470Z,0.60
2023-05-02T16:03:50.558Z,0.60
2023-05-02T16:06:19.377Z,0.60
2023-05-02T16:08:48.122Z,1.00
2023-05-02T16:11:16.831Z,0.70
2023-05-02T16:13:45.641Z,2.10
2023-05-02T16:16:14.354Z,1.40
2023-05-02T16:18:43.081Z,1.00
2023-05-02T16:21:11.744Z,0.70
2023-05-02T16:23:40.650Z,1.00
2023-05-02T16:26:10.277Z,0.90
2023-05-02T16:28:39.141Z,0.80
2023-05-02T16:31:11.152Z,0.70
2023-05-02T16:33:40.614Z,0.90
2023-05-02T16:36:09.832Z,0.70
2023-05-02T16:38:38.593Z,0.90
2023-05-02T16:41:07.382Z,0.70
2023-05-02T16:43:37.677Z,0.90
2023-05-02T16:46:07.162Z,1.20
2023-05-02T16:48:35.982Z,1.40
2023-05-02T16:51:04.929Z,1.60
2023-05-02T16:53:33.566Z,0.90
2023-05-02T16:56:02.288Z,1.40
2023-05-02T16:58:31.214Z,1.60
2023-05-02T17:01:01.334Z,2.40
2023-05-02T17:03:30.202Z,2.10
2023-05-02T17:06:01.101Z,1.70
2023-05-02T17:08:30.482Z,1.60
2023-05-02T17:10:59.272Z,2.10
2023-05-02T17:13:27.980Z,1.60
2023-05-02T17:15:57.581Z,1.60
2023-05-02T17:18:28.050Z,1.50
2023-05-02T17:20:56.963Z,1.40
2023-05-02T17:23:28.571Z,1.30
2023-05-02T17:25:57.277Z,1.70
2023-05-02T17:28:25.963Z,1.40
2023-05-02T17:30:56.109Z,1.40
2023-05-02T17:33:26.490Z,1.70
2023-05-02T17:35:56.043Z,2.20
2023-05-02T17:38:26.686Z,2.00
2023-05-02T17:40:55.468Z,2.70
2023-05-02T17:43:24.171Z,2.40
2023-05-02T17:45:53.000Z,2.50
2023-05-02T17:48:21.849Z,2.10
2023-05-02T17:50:51.248Z,2.40
2023-05-02T17:53:20.098Z,2.10
2023-05-02T17:55:48.735Z,1.50
2023-05-02T17:58:17.352Z,1.30
2023-05-02T18:00:46.087Z,1.90
2023-05-02T18:03:14.812Z,1.30
2023-05-02T18:05:44.391Z,1.40
2023-05-02T18:08:13.919Z,1.50
2023-05-02T18:10:42.804Z,1.40
2023-05-02T18:13:11.496Z,1.20
2023-05-02T18:15:40.268Z,1.10
2023-05-02T18:18:08.973Z,2.00
2023-05-02T18:20:39.798Z,1.60
2023-05-02T18:23:08.508Z,1.70
2023-05-02T18:25:37.261Z,1.90
2023-05-02T18:28:06.064Z,1.90
2023-05-02T18:30:38.255Z,2.10
2023-05-02T18:33:08.123Z,1.90
2023-05-02T18:35:36.928Z,2.00
2023-05-02T18:38:06.890Z,1.80
2023-05-02T18:40:35.689Z,1.70
2023-05-02T18:43:04.347Z,1.80
2023-05-02T18:45:33.621Z,1.90
2023-05-02T18:48:03.471Z,2.00
2023-05-02T18:50:32.228Z,2.30
2023-05-02T18:53:00.874Z,1.70
2023-05-02T18:55:32.575Z,2.10
2023-05-02T18:58:01.453Z,1.80
2023-05-02T19:00:31.600Z,1.50
2023-05-02T19:03:00.512Z,1.60
2023-05-02T19:05:29.458Z,1.90
2023-05-02T19:07:58.092Z,1.60
2023-05-02T19:10:26.758Z,1.90
2023-05-02T19:12:55.526Z,2.00
2023-05-02T19:15:26.888Z,1.70
2023-05-02T19:17:56.447Z,2.00
2023-05-02T19:20:27.674Z,1.60
2023-05-02T19:23:14.665Z,1.90
2023-05-02T19:25:46.587Z,1.60
2023-05-02T19:28:18.133Z,1.80
2023-05-02T19:30:46.868Z,1.30
2023-05-02T19:33:15.546Z,2.00
2023-05-02T19:35:44.246Z,1.80
2023-05-02T19:38:12.891Z,1.60
2023-05-02T19:40:41.530Z,2.00
2023-05-02T19:43:10.202Z,1.70
2023-05-02T19:45:38.947Z,1.90
2023-05-02T19:48:07.694Z,1.60
2023-05-02T19:50:37.779Z,1.70
2023-05-02T19:53:06.535Z,1.70
2023-05-02T19:55:35.218Z,1.50
2023-05-02T19:58:04.471Z,1.50
2023-05-02T20:00:34.220Z,1.40
2023-05-02T20:03:04.417Z,1.80
2023-05-02T20:05:33.286Z,1.40
2023-05-02T20:08:01.922Z,1.80
2023-05-02T20:10:31.407Z,1.70
2023-05-02T20:13:00.071Z,2.20
2023-05-02T20:15:29.254Z,1.80
2023-05-02T20:17:58.458Z,2.10
2023-05-02T20:20:27.637Z,2.20
2023-05-02T20:22:58.254Z,2.10
2023-05-02T20:25:27.107Z,1.90
2023-05-02T20:27:55.812Z,2.00
2023-05-02T20:30:24.709Z,2.30
2023-05-02T20:32:53.561Z,1.90
2023-05-02T20:35:22.934Z,1.70
2023-05-02T20:37:51.621Z,1.30
2023-05-02T20:40:22.518Z,1.80
2023-05-02T20:42:51.157Z,2.40
2023-05-02T20:45:24.195Z,1.80
2023-05-02T20:47:52.961Z,2.20
2023-05-02T20:50:21.993Z,2.10
2023-05-02T20:52:50.894Z,2.20
2023-05-02T20:55:20.386Z,2.40
2023-05-02T20:57:52.967Z,1.80
2023-05-02T21:00:22.721Z,2.60
2023-05-02T21:02:51.580Z,2.40
2023-05-02T21:05:20.298Z,2.20
2023-05-02T21:07:49.064Z,3.00
2023-05-02T21:10:17.727Z,2.70
2023-05-02T21:12:46.424Z,2.50
2023-05-02T21:15:15.276Z,2.10
2023-05-02T21:17:44.012Z,2.50
2023-05-02T21:20:13.113Z,2.10
2023-05-02T21:22:42.041Z,2.20
2023-05-02T21:25:10.937Z,1.80
2023-05-02T21:27:39.651Z,1.90
2023-05-02T21:30:08.926Z,1.90
2023-05-02T21:32:37.576Z,1.60
2023-05-02T21:35:06.647Z,2.10
2023-05-02T21:37:35.413Z,2.00
2023-05-02T21:40:04.582Z,2.10
2023-05-02T21:42:33.523Z,2.70
2023-05-02T21:45:02.336Z,2.30
2023-05-02T21:47:32.281Z,2.50
2023-05-02T21:50:01.076Z,2.30
2023-05-02T21:52:31.660Z,2.10
2023-05-02T21:55:01.103Z,2.30
2023-05-02T21:57:29.774Z,2.50
2023-05-02T21:59:58.434Z,2.20
2023-05-02T22:02:28.426Z,2.60
2023-05-02T22:04:57.818Z,2.40
2023-05-02T22:07:27.414Z,2.20
2023-05-02T22:09:56.157Z,2.70
2023-05-02T22:12:26.833Z,2.30
2023-05-02T22:14:55.589Z,2.00
2023-05-02T22:17:24.352Z,2.40
2023-05-02T22:19:53.026Z,2.50
2023-05-02T22:22:21.706Z,2.00
2023-05-02T22:24:50.460Z,2.30
2023-05-02T22:27:19.190Z,2.40
2023-05-02T22:29:47.882Z,2.00
2023-05-02T22:32:16.649Z,2.10
2023-05-02T22:34:45.625Z,2.50
2023-05-02T22:37:14.309Z,2.40
2023-05-02T22:39:42.944Z,2.60
2023-05-02T22:42:11.594Z,2.80
2023-05-02T22:44:53.042Z,2.80
2023-05-02T22:47:22.809Z,2.90
2023-05-02T22:49:52.679Z,2.50
2023-05-02T22:52:21.496Z,3.10
2023-05-02T22:54:50.138Z,2.90
2023-05-02T22:57:19.144Z,2.70
2023-05-02T22:59:47.927Z,3.40
2023-05-02T23:02:16.724Z,2.80
2023-05-02T23:04:45.438Z,2.50
2023-05-02T23:07:14.109Z,3.10
2023-05-02T23:09:42.735Z,2.90
2023-05-02T23:12:11.356Z,3.00
2023-05-02T23:14:40.034Z,3.20
2023-05-02T23:17:08.729Z,3.30
2023-05-02T23:19:37.408Z,2.90
2023-05-02T23:22:06.270Z,3.40
2023-05-02T23:24:34.978Z,2.70
2023-05-02T23:27:03.800Z,2.70
2023-05-02T23:29:32.550Z,3.00
2023-05-02T23:32:01.682Z,3.10
2023-05-02T23:34:31.326Z,2.90
2023-05-02T23:37:00.033Z,2.80
2023-05-02T23:39:29.017Z,3.10
2023-05-02T23:41:57.691Z,2.50
2023-05-02T23:44:26.623Z,2.80
2023-05-02T23:46:55.313Z,2.90
2023-05-02T23:49:24.064Z,2.40
2023-05-02T23:51:52.713Z,2.80
2023-05-02T23:54:21.440Z,2.70
2023-05-02T23:56:50.262Z,2.90
2023-05-02T23:59:18.915Z,2.80
